McGhee Tyson ANG Base, Tennessee
Current Conditions -  °F | °C
As of 6:53 AM on Sunday 25 Jan 2015 (Local Time) from KTYS Reporting Station
Few Clouds Few Clouds  
Wind Chill: 29°   Ceiling: Unl
Heat Index: 34°   Visibility: 10mi
Dew Point: 27°   Wind: 6mph
Humidity: 75%   Direction: 210°SSW
Pressure: 29.88"   Gusts: NA
Location:  35.812°N, 84.0922°W
Report Text: KTYS 251153Z 21005KT 10SM FEW200 01/M03 A2988 RMK AO2 SLP123 70004 T00111028 10017 20000 58009
Loading
Personal Weather Stations






























Interactive Weather Map New forecast layout! Learn more

10-Day Weather Forecast

Advertisements
Track Severe Weather on mobile